createdAt,value
2022-09-15T00:02:30.878Z,47.00
2022-09-15T00:05:01.998Z,47.10
2022-09-15T00:07:32.769Z,47.20
2022-09-15T00:10:02.754Z,47.10
2022-09-15T00:12:33.776Z,47.00
2022-09-15T00:15:03.763Z,47.20
2022-09-15T00:17:33.885Z,47.10
2022-09-15T00:20:07.305Z,47.40
2022-09-15T00:22:38.530Z,47.60
2022-09-15T00:25:08.758Z,47.70
2022-09-15T00:27:38.852Z,48.30
2022-09-15T00:30:09.786Z,48.40
2022-09-15T00:32:40.419Z,48.90
2022-09-15T00:35:11.438Z,49.30
2022-09-15T00:37:41.609Z,49.10
2022-09-15T00:40:12.019Z,49.10
2022-09-15T00:42:42.739Z,49.40
2022-09-15T00:45:16.647Z,49.80
2022-09-15T00:47:46.761Z,49.20
2022-09-15T00:50:18.682Z,49.40
2022-09-15T00:52:51.514Z,49.40
2022-09-15T00:55:24.473Z,49.10
2022-09-15T00:58:12.411Z,49.00
2022-09-15T01:00:48.994Z,48.30
2022-09-15T01:03:19.106Z,48.00
2022-09-15T01:05:52.625Z,48.00
2022-09-15T01:08:38.199Z,48.00
2022-09-15T01:11:08.199Z,47.60
2022-09-15T01:13:38.415Z,47.60
2022-09-15T01:16:32.647Z,47.30
2022-09-15T01:19:44.196Z,47.80
2022-09-15T01:22:34.726Z,47.00
2022-09-15T01:25:30.032Z,46.90
2022-09-15T01:28:17.899Z,46.80
2022-09-15T01:31:02.409Z,46.70
2022-09-15T01:33:47.563Z,46.70
2022-09-15T01:36:21.384Z,46.60
2022-09-15T01:39:25.333Z,46.60
2022-09-15T01:42:02.775Z,46.50
2022-09-15T01:44:54.232Z,46.60
2022-09-15T01:47:24.169Z,46.50
2022-09-15T01:49:55.392Z,46.50
2022-09-15T01:52:25.911Z,46.60
2022-09-15T01:55:00.851Z,46.60
2022-09-15T01:57:30.744Z,47.20
2022-09-15T02:00:01.001Z,47.90
2022-09-15T02:02:44.118Z,48.30
2022-09-15T02:05:22.024Z,49.10
2022-09-15T02:07:51.948Z,50.60
2022-09-15T02:10:40.289Z,51.00
2022-09-15T02:13:40.873Z,50.00
2022-09-15T02:16:21.055Z,50.60
2022-09-15T02:19:09.169Z,51.00
2022-09-15T02:21:51.983Z,50.90
2022-09-15T02:24:26.363Z,50.80
2022-09-15T02:26:59.115Z,50.70
2022-09-15T02:29:29.279Z,50.40
2022-09-15T02:32:03.751Z,50.50
2022-09-15T02:34:38.841Z,51.20
2022-09-15T02:37:08.831Z,50.90
2022-09-15T02:39:41.185Z,50.40
2022-09-15T02:42:11.811Z,50.90
2022-09-15T02:44:42.516Z,50.80
2022-09-15T02:47:13.352Z,50.50
2022-09-15T02:49:43.275Z,50.80
2022-09-15T02:52:13.236Z,50.80
2022-09-15T02:54:43.284Z,50.80
2022-09-15T02:57:15.087Z,50.70
2022-09-15T03:00:02.959Z,50.80
2022-09-15T03:02:33.447Z,50.50
2022-09-15T03:05:03.462Z,50.10
2022-09-15T03:07:33.391Z,49.90
2022-09-15T03:10:03.368Z,49.60
2022-09-15T03:12:33.450Z,49.60
2022-09-15T03:15:03.427Z,49.30
2022-09-15T03:17:36.782Z,49.30
2022-09-15T03:20:09.534Z,49.10
2022-09-15T03:22:42.867Z,49.00
2022-09-15T03:25:13.032Z,48.90
2022-09-15T03:27:43.755Z,48.70
2022-09-15T03:30:14.265Z,48.50
2022-09-15T03:32:44.251Z,48.50
2022-09-15T03:35:14.239Z,48.60
2022-09-15T03:37:44.306Z,48.40
2022-09-15T03:40:14.293Z,48.10
2022-09-15T03:42:44.184Z,48.10
2022-09-15T03:45:14.134Z,48.10
2022-09-15T03:47:44.106Z,48.00
2022-09-15T03:50:14.052Z,48.10
2022-09-15T03:52:44.314Z,48.10
2022-09-15T03:55:14.292Z,48.20
2022-09-15T03:57:44.197Z,48.20
2022-09-15T04:00:16.141Z,48.00
2022-09-15T04:02:47.250Z,48.20
2022-09-15T04:05:17.474Z,48.10
2022-09-15T04:07:47.433Z,48.30
2022-09-15T04:10:17.789Z,48.30
2022-09-15T04:12:47.860Z,48.40
2022-09-15T04:15:17.998Z,48.30
2022-09-15T04:17:48.327Z,48.70
2022-09-15T04:20:18.490Z,48.40
2022-09-15T04:22:48.461Z,48.50
2022-09-15T04:25:18.617Z,48.40
2022-09-15T04:27:48.534Z,48.40
2022-09-15T04:30:18.461Z,48.10
2022-09-15T04:32:48.432Z,48.10
2022-09-15T04:35:18.849Z,47.90
2022-09-15T04:37:49.244Z,48.00
2022-09-15T04:40:19.450Z,48.00
2022-09-15T04:42:49.584Z,48.00
2022-09-15T04:45:19.625Z,48.00
2022-09-15T04:47:50.335Z,47.90
2022-09-15T04:50:20.604Z,47.70
2022-09-15T04:52:50.607Z,48.10
2022-09-15T04:55:20.650Z,47.80
2022-09-15T04:57:50.653Z,47.70
2022-09-15T05:00:20.625Z,47.60
2022-09-15T05:02:51.353Z,47.70
2022-09-15T05:05:21.712Z,47.70
2022-09-15T05:07:51.751Z,47.70
2022-09-15T05:10:22.094Z,47.60
2022-09-15T05:12:52.036Z,47.90
2022-09-15T05:15:22.045Z,47.90
2022-09-15T05:17:52.442Z,48.00
2022-09-15T05:20:58.328Z,47.80
2022-09-15T05:23:28.778Z,47.60
2022-09-15T05:25:59.455Z,47.20
2022-09-15T05:28:29.494Z,47.00
2022-09-15T05:30:59.554Z,46.80
2022-09-15T05:33:29.668Z,46.70
2022-09-15T05:36:00.662Z,46.60
2022-09-15T05:38:32.310Z,46.40
2022-09-15T05:41:07.183Z,46.10
2022-09-15T05:43:37.948Z,46.00
2022-09-15T05:46:08.770Z,45.80
2022-09-15T05:48:39.103Z,45.70
2022-09-15T05:51:09.340Z,45.50
2022-09-15T05:53:39.457Z,45.40
2022-09-15T05:56:13.101Z,45.20
2022-09-15T05:58:44.589Z,45.10
2022-09-15T06:01:25.278Z,45.00
2022-09-15T06:03:56.728Z,44.80
2022-09-15T06:06:27.329Z,44.60
2022-09-15T06:08:59.293Z,44.70
2022-09-15T06:11:31.271Z,44.30
2022-09-15T06:14:04.304Z,44.10
2022-09-15T06:16:35.830Z,43.90
2022-09-15T06:19:06.519Z,43.60
2022-09-15T06:21:36.696Z,43.30
2022-09-15T06:24:08.103Z,43.30
2022-09-15T06:26:38.486Z,42.90
2022-09-15T06:29:09.896Z,41.80
2022-09-15T06:31:40.949Z,41.00
2022-09-15T06:34:12.404Z,40.00
2022-09-15T06:36:42.865Z,39.30
2022-09-15T06:39:13.604Z,38.50
2022-09-15T06:42:01.277Z,37.90
2022-09-15T06:44:32.168Z,37.30
2022-09-15T06:47:02.405Z,36.90
2022-09-15T06:49:33.107Z,36.10
2022-09-15T06:52:03.790Z,35.90
2022-09-15T06:54:33.984Z,36.20
2022-09-15T06:57:03.927Z,36.10
2022-09-15T06:59:34.204Z,36.10
2022-09-15T07:02:05.229Z,36.00
2022-09-15T07:04:39.899Z,35.90
2022-09-15T07:07:10.082Z,35.70
2022-09-15T07:09:41.321Z,35.70
2022-09-15T07:12:12.033Z,35.60
2022-09-15T07:14:43.976Z,35.50
2022-09-15T07:17:14.079Z,35.30
2022-09-15T07:19:44.751Z,35.40
2022-09-15T07:22:14.891Z,35.20
2022-09-15T07:24:44.757Z,35.10
2022-09-15T07:27:14.756Z,35.00
2022-09-15T07:29:45.257Z,35.00
2022-09-15T07:32:15.602Z,34.90
2022-09-15T07:34:45.518Z,34.80
2022-09-15T07:37:15.504Z,34.70
2022-09-15T07:39:45.495Z,34.70
2022-09-15T07:42:15.584Z,34.70
2022-09-15T07:44:46.195Z,34.60
2022-09-15T07:47:16.509Z,34.50
2022-09-15T07:49:46.890Z,34.60
2022-09-15T07:52:17.801Z,34.50
2022-09-15T07:54:48.070Z,34.50
2022-09-15T07:57:17.973Z,34.50
2022-09-15T07:59:48.514Z,34.50
2022-09-15T08:02:19.887Z,34.50
2022-09-15T08:04:50.574Z,34.40
2022-09-15T08:07:20.608Z,34.30
2022-09-15T08:09:50.619Z,34.40
2022-09-15T08:12:20.592Z,34.30
2022-09-15T08:14:50.982Z,34.30
2022-09-15T08:17:21.379Z,34.40
2022-09-15T08:19:51.363Z,34.40
2022-09-15T08:22:21.287Z,34.60
2022-09-15T08:24:51.574Z,34.50
2022-09-15T08:27:21.574Z,34.60
2022-09-15T08:29:53.126Z,34.60
2022-09-15T08:32:23.532Z,33.50
2022-09-15T08:34:53.494Z,32.60
2022-09-15T08:37:23.455Z,32.40
2022-09-15T08:39:53.526Z,32.50
2022-09-15T08:42:25.397Z,32.60
2022-09-15T08:45:23.485Z,32.40
2022-09-15T08:47:57.361Z,32.40
2022-09-15T08:50:28.699Z,32.60
2022-09-15T08:53:10.970Z,32.50
2022-09-15T08:55:56.133Z,32.40
2022-09-15T08:58:34.017Z,32.40
2022-09-15T09:01:13.336Z,32.50
2022-09-15T09:03:49.518Z,32.40
2022-09-15T09:06:32.634Z,32.40
2022-09-15T09:09:37.475Z,32.30
2022-09-15T09:12:33.657Z,32.40
2022-09-15T09:15:25.410Z,32.90
2022-09-15T09:18:22.440Z,33.40
2022-09-15T09:21:10.738Z,33.70
2022-09-15T09:24:08.262Z,33.90
2022-09-15T09:26:38.609Z,33.30
2022-09-15T09:29:14.491Z,33.30
2022-09-15T09:31:45.428Z,33.50
2022-09-15T09:34:43.826Z,33.70
2022-09-15T09:37:17.649Z,33.80
2022-09-15T09:39:49.262Z,33.90
2022-09-15T09:42:19.733Z,34.00
2022-09-15T09:44:49.745Z,34.00
2022-09-15T09:47:19.781Z,34.10
2022-09-15T09:49:51.231Z,34.20
2022-09-15T09:52:38.106Z,34.40
2022-09-15T09:55:28.346Z,34.40
2022-09-15T09:58:16.725Z,34.50
2022-09-15T10:00:47.415Z,34.70
2022-09-15T10:03:30.730Z,34.70
2022-09-15T10:06:13.012Z,34.70
2022-09-15T10:08:56.794Z,34.80
2022-09-15T10:11:43.311Z,34.90
2022-09-15T10:14:34.642Z,34.80
2022-09-15T10:17:08.378Z,34.90
2022-09-15T10:19:58.982Z,34.90
2022-09-15T10:22:39.544Z,34.90
2022-09-15T10:25:25.923Z,34.90
2022-09-15T10:28:15.712Z,34.80
2022-09-15T10:31:03.904Z,35.00
2022-09-15T10:33:36.211Z,35.10
2022-09-15T10:36:24.540Z,35.20
2022-09-15T10:39:12.382Z,35.30
2022-09-15T10:41:48.009Z,35.50
2022-09-15T10:44:42.213Z,35.70
2022-09-15T10:47:22.937Z,35.70
2022-09-15T10:50:31.648Z,35.90
2022-09-15T10:53:57.521Z,36.00
2022-09-15T10:56:30.602Z,36.10
2022-09-15T10:59:27.454Z,36.20
2022-09-15T11:02:18.126Z,36.30
2022-09-15T11:04:59.683Z,36.20
2022-09-15T11:07:59.781Z,36.40
2022-09-15T11:10:32.692Z,36.30
2022-09-15T11:13:11.893Z,36.40
2022-09-15T11:16:09.031Z,36.40
2022-09-15T11:18:58.098Z,36.70
2022-09-15T11:21:40.716Z,36.90
2022-09-15T11:24:20.417Z,37.10
2022-09-15T11:27:30.043Z,37.40
2022-09-15T11:30:15.603Z,37.50
2022-09-15T11:32:55.778Z,37.70
2022-09-15T11:36:02.123Z,37.80
2022-09-15T11:38:33.091Z,38.00
2022-09-15T11:41:18.418Z,38.00
2022-09-15T11:43:57.655Z,38.30
2022-09-15T11:46:52.878Z,38.30
2022-09-15T11:49:24.715Z,38.60
2022-09-15T11:52:10.848Z,38.70
2022-09-15T11:54:47.741Z,39.10
2022-09-15T11:57:20.353Z,39.60
2022-09-15T12:00:02.331Z,40.00
2022-09-15T12:02:40.668Z,40.10
2022-09-15T12:05:20.871Z,40.10
2022-09-15T12:07:59.742Z,40.50
2022-09-15T12:10:36.366Z,40.50
2022-09-15T12:13:06.660Z,40.80
2022-09-15T12:15:36.957Z,40.80
2022-09-15T12:18:39.297Z,40.90
2022-09-15T12:21:35.417Z,40.70
2022-09-15T12:24:09.316Z,40.80
2022-09-15T12:26:42.586Z,41.00
2022-09-15T12:29:28.106Z,41.20
2022-09-15T12:32:22.515Z,41.20
2022-09-15T12:35:19.620Z,41.40
2022-09-15T12:37:59.886Z,41.20
2022-09-15T12:40:39.752Z,41.50
2022-09-15T12:43:20.317Z,41.50
2022-09-15T12:46:01.294Z,41.60
2022-09-15T12:48:35.276Z,41.70
2022-09-15T12:51:11.503Z,41.60
2022-09-15T12:53:52.156Z,41.80
2022-09-15T12:56:29.420Z,41.90
2022-09-15T12:59:06.603Z,41.80
2022-09-15T13:01:51.059Z,42.00
2022-09-15T13:04:28.709Z,42.10
2022-09-15T13:07:16.857Z,42.20
2022-09-15T13:10:00.213Z,42.10
2022-09-15T13:12:33.802Z,42.20
2022-09-15T13:15:05.441Z,42.20
2022-09-15T13:17:35.470Z,42.30
2022-09-15T13:20:10.715Z,42.20
2022-09-15T13:22:45.382Z,42.40
2022-09-15T13:25:15.829Z,42.40
2022-09-15T13:27:46.715Z,42.60
2022-09-15T13:30:44.144Z,42.60
2022-09-15T13:40:00.775Z,42.70
2022-09-15T13:42:53.924Z,42.80
2022-09-15T13:45:32.516Z,42.80
2022-09-15T13:48:42.577Z,42.90
2022-09-15T13:51:24.898Z,43.00
2022-09-15T13:54:00.842Z,43.00
2022-09-15T13:56:33.367Z,43.00
2022-09-15T13:59:10.256Z,43.00
2022-09-15T14:01:44.635Z,43.00
2022-09-15T14:04:20.382Z,43.20
2022-09-15T14:06:57.130Z,43.20
2022-09-15T14:09:41.571Z,43.10
2022-09-15T14:12:13.224Z,43.20
2022-09-15T14:14:47.075Z,43.20
2022-09-15T14:17:29.976Z,43.20
2022-09-15T14:20:01.756Z,43.40
2022-09-15T14:22:33.824Z,43.40
2022-09-15T14:25:16.231Z,43.50
2022-09-15T14:27:47.555Z,43.50
2022-09-15T14:30:31.725Z,44.10
2022-09-15T14:33:02.539Z,43.60
2022-09-15T14:35:38.727Z,43.60
2022-09-15T14:38:08.683Z,43.80
2022-09-15T14:40:39.829Z,43.80
2022-09-15T14:43:48.718Z,43.70
2022-09-15T14:46:20.300Z,43.80
2022-09-15T14:48:50.282Z,43.90
2022-09-15T14:51:25.333Z,43.60
2022-09-15T14:53:56.941Z,43.80
2022-09-15T14:56:29.124Z,43.80
2022-09-15T14:59:10.517Z,43.90
2022-09-15T15:01:54.185Z,43.90
2022-09-15T15:04:43.236Z,44.00
2022-09-15T15:07:25.462Z,44.10
2022-09-15T15:09:57.930Z,44.00
2022-09-15T15:12:36.311Z,44.00
2022-09-15T15:15:07.024Z,44.00
2022-09-15T15:17:40.478Z,44.10
2022-09-15T15:20:10.456Z,44.20
2022-09-15T15:22:41.002Z,44.10
2022-09-15T15:25:28.757Z,44.20
2022-09-15T15:28:00.152Z,44.30
2022-09-15T15:30:43.147Z,44.10
2022-09-15T15:33:30.241Z,44.30
2022-09-15T15:36:08.731Z,44.20
2022-09-15T15:38:47.528Z,44.20
2022-09-15T15:41:40.457Z,44.20
2022-09-15T15:44:31.150Z,44.30
2022-09-15T15:47:26.946Z,44.30
2022-09-15T15:50:12.821Z,44.60
2022-09-15T15:52:47.893Z,44.20
2022-09-15T15:55:19.824Z,44.30
2022-09-15T15:57:53.640Z,44.40
2022-09-15T16:00:31.610Z,44.30
2022-09-15T16:03:02.226Z,44.40
2022-09-15T16:05:32.273Z,44.40
2022-09-15T16:08:08.250Z,44.40
2022-09-15T16:10:46.432Z,44.40
2022-09-15T16:13:18.634Z,44.30
2022-09-15T16:15:48.606Z,44.90
2022-09-15T16:18:18.726Z,44.40
2022-09-15T16:20:48.693Z,44.40
2022-09-15T16:23:20.293Z,44.50
2022-09-15T16:25:51.598Z,44.50
2022-09-15T16:28:21.860Z,44.50
2022-09-15T16:30:53.197Z,44.90
2022-09-15T16:33:24.216Z,44.80
2022-09-15T16:36:04.905Z,44.70
2022-09-15T16:38:35.561Z,44.60
2022-09-15T16:41:08.132Z,44.40
2022-09-15T16:43:37.686Z,44.40
2022-09-15T16:46:08.098Z,44.10
2022-09-15T16:48:39.184Z,44.00
2022-09-15T16:51:26.647Z,44.10
2022-09-15T16:53:59.574Z,44.00
2022-09-15T16:56:29.787Z,44.00
2022-09-15T16:59:00.630Z,44.00
2022-09-15T17:01:32.013Z,43.90
2022-09-15T17:04:03.552Z,44.10
2022-09-15T17:06:33.581Z,44.00
2022-09-15T17:09:03.541Z,44.00
2022-09-15T17:11:34.033Z,44.20
2022-09-15T17:14:04.329Z,44.00
2022-09-15T17:16:34.257Z,44.00
2022-09-15T17:19:04.998Z,44.60
2022-09-15T17:21:35.890Z,44.00
2022-09-15T17:24:05.888Z,43.90
2022-09-15T17:26:36.072Z,43.50
2022-09-15T17:29:06.099Z,43.60
2022-09-15T17:31:36.364Z,43.70
2022-09-15T17:34:07.217Z,43.80
2022-09-15T17:36:38.515Z,43.70
2022-09-15T17:39:08.581Z,43.70
2022-09-15T17:41:39.868Z,43.60
2022-09-15T17:44:13.357Z,43.60
2022-09-15T17:46:43.627Z,43.70
2022-09-15T17:49:14.214Z,43.60
2022-09-15T17:51:45.065Z,43.60
2022-09-15T17:54:15.477Z,43.50
2022-09-15T17:56:45.644Z,43.50
2022-09-15T17:59:18.606Z,43.50
2022-09-15T18:01:48.801Z,43.40
2022-09-15T18:04:18.720Z,43.20
2022-09-15T18:06:48.652Z,42.70
2022-09-15T18:09:18.875Z,42.30
2022-09-15T18:11:49.724Z,41.80
2022-09-15T18:14:19.698Z,42.20
2022-09-15T18:16:49.624Z,42.30
2022-09-15T18:19:19.943Z,42.30
2022-09-15T18:21:53.302Z,42.30
2022-09-15T18:24:23.597Z,42.20
2022-09-15T18:26:55.309Z,42.30
2022-09-15T18:29:25.531Z,42.40
2022-09-15T18:31:56.019Z,42.40
2022-09-15T18:34:26.647Z,42.30
2022-09-15T18:36:56.690Z,42.30
2022-09-15T18:39:27.246Z,42.40
2022-09-15T18:41:58.270Z,42.40
2022-09-15T18:44:28.327Z,42.30
2022-09-15T18:46:58.238Z,42.30
2022-09-15T18:49:28.594Z,42.30
2022-09-15T18:52:00.547Z,42.40
2022-09-15T18:54:30.978Z,42.20
2022-09-15T18:57:01.017Z,42.20
2022-09-15T18:59:30.954Z,42.50
2022-09-15T19:02:01.763Z,42.60
2022-09-15T19:04:36.086Z,42.60
2022-09-15T19:07:08.791Z,42.60
2022-09-15T19:09:38.728Z,42.60
2022-09-15T19:12:08.822Z,42.60
2022-09-15T19:14:39.876Z,42.70
2022-09-15T19:17:11.259Z,42.70
2022-09-15T19:19:41.674Z,42.70
2022-09-15T19:22:11.589Z,43.20
2022-09-15T19:24:41.678Z,42.70
2022-09-15T19:27:11.692Z,42.70
2022-09-15T19:29:41.804Z,42.60
2022-09-15T19:32:13.811Z,42.60
2022-09-15T19:34:44.144Z,42.70
2022-09-15T19:37:18.833Z,42.70
2022-09-15T19:39:49.652Z,42.70
2022-09-15T19:42:19.991Z,42.80
2022-09-15T19:44:50.665Z,42.80
2022-09-15T19:47:20.775Z,42.80
2022-09-15T19:49:53.589Z,42.70
2022-09-15T19:52:24.003Z,42.70
2022-09-15T19:54:54.168Z,42.70
2022-09-15T19:57:24.422Z,42.70
2022-09-15T19:59:54.369Z,42.70
2022-09-15T20:02:24.672Z,42.80
2022-09-15T20:07:41.487Z,42.70
2022-09-15T20:10:11.612Z,42.70
2022-09-15T20:12:42.303Z,42.70
2022-09-15T20:15:12.628Z,42.70
2022-09-15T20:17:43.534Z,42.80
2022-09-15T20:20:14.692Z,42.70
2022-09-15T20:22:45.731Z,42.80
2022-09-15T20:25:15.772Z,42.70
2022-09-15T20:27:46.390Z,42.70
2022-09-15T20:30:16.381Z,42.80
2022-09-15T20:32:47.619Z,42.80
2022-09-15T20:35:18.381Z,42.80
2022-09-15T20:37:50.609Z,42.80
2022-09-15T20:40:20.580Z,42.80
2022-09-15T20:42:51.449Z,42.80
2022-09-15T20:45:21.501Z,42.80
2022-09-15T20:47:51.392Z,42.80
2022-09-15T20:50:22.140Z,42.80
2022-09-15T20:52:53.399Z,42.80
2022-09-15T20:55:24.712Z,42.80
2022-09-15T20:57:54.818Z,42.80
2022-09-15T21:00:25.620Z,42.80
2022-09-15T21:02:56.578Z,42.80
2022-09-15T21:05:26.642Z,42.80
2022-09-15T21:07:56.547Z,42.80
2022-09-15T21:10:27.402Z,42.80
2022-09-15T21:12:57.476Z,42.80
2022-09-15T21:15:27.363Z,42.80
2022-09-15T21:17:57.862Z,42.80
2022-09-15T21:20:28.736Z,42.70
2022-09-15T21:22:58.856Z,42.70
2022-09-15T21:25:28.798Z,42.70
2022-09-15T21:27:58.721Z,42.80
2022-09-15T21:30:28.647Z,42.70
2022-09-15T21:32:58.968Z,42.70
2022-09-15T21:35:28.869Z,42.70
2022-09-15T21:38:00.721Z,42.70
2022-09-15T21:40:31.910Z,43.20
2022-09-15T21:43:02.619Z,42.70
2022-09-15T21:45:32.695Z,42.70
2022-09-15T21:48:03.275Z,42.60
2022-09-15T21:50:33.582Z,42.90
2022-09-15T21:53:03.752Z,42.70
2022-09-15T21:55:37.202Z,42.20
2022-09-15T21:58:07.110Z,40.90
2022-09-15T22:00:38.794Z,40.40
2022-09-15T22:03:09.561Z,40.10
2022-09-15T22:05:43.354Z,39.90
2022-09-15T22:08:14.299Z,40.10
2022-09-15T22:10:44.624Z,40.50
2022-09-15T22:13:14.542Z,40.70
2022-09-15T22:15:44.457Z,40.80
2022-09-15T22:18:14.526Z,41.00
2022-09-15T22:20:44.739Z,41.10
2022-09-15T22:23:14.641Z,41.20
2022-09-15T22:25:44.603Z,41.30
2022-09-15T22:28:14.664Z,41.30
2022-09-15T22:30:44.584Z,41.40
2022-09-15T22:33:14.821Z,41.50
2022-09-15T22:35:49.038Z,41.60
2022-09-15T22:38:18.963Z,41.60
2022-09-15T22:40:48.947Z,41.70
2022-09-15T22:43:19.174Z,41.60
2022-09-15T22:45:49.263Z,41.70
2022-09-15T22:48:19.306Z,41.70
2022-09-15T22:50:49.259Z,41.70
2022-09-15T22:53:19.453Z,41.80
2022-09-15T22:55:49.386Z,41.80
2022-09-15T22:58:19.359Z,42.40
2022-09-15T23:00:49.289Z,41.80
2022-09-15T23:03:19.232Z,41.80
2022-09-15T23:05:51.765Z,41.90
2022-09-15T23:08:21.748Z,41.80
2022-09-15T23:10:51.683Z,41.80
2022-09-15T23:13:21.828Z,41.80
2022-09-15T23:15:51.805Z,42.30
2022-09-15T23:18:21.798Z,41.70
2022-09-15T23:21:08.569Z,41.70
2022-09-15T23:23:39.489Z,41.70
2022-09-15T23:26:11.713Z,41.70
2022-09-15T23:28:41.774Z,41.70
2022-09-15T23:31:13.305Z,41.60
2022-09-15T23:33:43.584Z,41.70
2022-09-15T23:36:14.862Z,41.60
2022-09-15T23:38:45.719Z,41.70
2022-09-15T23:41:16.030Z,41.60
2022-09-15T23:43:47.998Z,41.70
2022-09-15T23:46:18.508Z,41.60
2022-09-15T23:48:48.563Z,41.60
2022-09-15T23:51:18.573Z,41.60
2022-09-15T23:53:49.681Z,41.50
2022-09-15T23:56:19.733Z,41.50
2022-09-15T23:58:49.760Z,41.50
